SEATTLE-TACOMA INTL

KSEA (SEA)
Seattle, Washington
Towered

Vatsim Metar:
KSEA 270353Z 15012KT 8SM SCT003 BKN015 OVC030 14/13 A2966 RMK AO2 RAE37 SLP051 P0000 T01390128